Terminal Aerodrome Forecast
Issued by NWS St Louis, MO

Home | Current Version | Previous Version | Text Only | Print | Product List | Glossary On
Versions: 1 2 3 4 5 6 7 8 9 10 11 12 13 14
000
FTUS43 KLSX 231003 AAA
TAFCOU
TAF AMD
KCOU 231003Z 2310/2406 13012KT P6SM VCTS OVC035CB
      TEMPO 2310/2314 6SM -SHRA OVC035
     FM231600 15012KT P6SM OVC040
     FM232000 16014G20KT P6SM SCT200
     FM240300 17013KT P6SM SCT250 WS014/21050KT=

USA.gov is the U.S. government's official web portal to all federal, state and local government web resources and services.